sensor_id;sensor_type;location;lat;lon;timestamp;P1;durP1;ratioP1;P2;durP2;ratioP2
44328;SDS011;30039;51.462;6.892;2024-02-21T14:51:11;5.32;;;2.22;;
44328;SDS011;30039;51.462;6.892;2024-02-21T14:56:33;8.57;;;2.85;;
44328;SDS011;30039;51.462;6.892;2024-02-21T14:59:19;8.32;;;2.70;;
44328;SDS011;30039;51.462;6.892;2024-02-21T15:02:04;3.90;;;1.98;;
44328;SDS011;30039;51.462;6.892;2024-02-21T15:04:50;8.18;;;2.40;;
44328;SDS011;30039;51.462;6.892;2024-02-21T15:07:39;5.57;;;2.30;;
44328;SDS011;30039;51.462;6.892;2024-02-21T15:10:24;7.68;;;2.60;;
44328;SDS011;30039;51.462;6.892;2024-02-21T15:13:10;6.22;;;2.45;;
44328;SDS011;30039;51.462;6.892;2024-02-21T15:15:55;3.78;;;1.65;;
44328;SDS011;30039;51.462;6.892;2024-02-21T15:18:41;4.13;;;2.20;;
44328;SDS011;30039;51.462;6.892;2024-02-21T15:21:26;6.90;;;2.45;;
44328;SDS011;30039;51.462;6.892;2024-02-21T15:24:13;5.80;;;2.25;;
44328;SDS011;30039;51.462;6.892;2024-02-21T15:26:58;6.78;;;2.58;;
44328;SDS011;30039;51.462;6.892;2024-02-21T15:29:44;5.85;;;2.55;;
44328;SDS011;30039;51.462;6.892;2024-02-21T15:32:30;7.25;;;2.35;;
44328;SDS011;30039;51.462;6.892;2024-02-21T15:35:15;5.22;;;2.25;;
44328;SDS011;30039;51.462;6.892;2024-02-21T15:38:01;6.85;;;2.40;;
44328;SDS011;30039;51.462;6.892;2024-02-21T15:40:46;8.32;;;2.80;;
44328;SDS011;30039;51.462;6.892;2024-02-21T15:43:32;6.00;;;2.28;;
44328;SDS011;30039;51.462;6.892;2024-02-21T15:46:17;8.02;;;2.10;;
44328;SDS011;30039;51.462;6.892;2024-02-21T15:49:03;7.57;;;2.65;;
44328;SDS011;30039;51.462;6.892;2024-02-21T15:51:49;5.30;;;2.20;;
44328;SDS011;30039;51.462;6.892;2024-02-21T15:54:34;5.43;;;2.10;;
44328;SDS011;30039;51.462;6.892;2024-02-21T15:57:21;7.72;;;2.33;;
44328;SDS011;30039;51.462;6.892;2024-02-21T16:00:08;8.20;;;2.67;;
44328;SDS011;30039;51.462;6.892;2024-02-21T16:02:57;7.57;;;3.00;;
44328;SDS011;30039;51.462;6.892;2024-02-21T16:05:43;9.38;;;2.70;;
44328;SDS011;30039;51.462;6.892;2024-02-21T16:08:28;6.40;;;2.58;;
44328;SDS011;30039;51.462;6.892;2024-02-21T16:11:14;7.32;;;2.42;;
44328;SDS011;30039;51.462;6.892;2024-02-21T16:14:01;6.30;;;2.13;;
44328;SDS011;30039;51.462;6.892;2024-02-21T16:16:48;8.00;;;3.05;;
44328;SDS011;30039;51.462;6.892;2024-02-21T16:19:33;6.30;;;2.28;;
44328;SDS011;30039;51.462;6.892;2024-02-21T16:22:19;7.18;;;2.80;;
44328;SDS011;30039;51.462;6.892;2024-02-21T16:25:04;5.10;;;2.20;;
44328;SDS011;30039;51.462;6.892;2024-02-21T16:27:54;4.78;;;2.30;;
44328;SDS011;30039;51.462;6.892;2024-02-21T16:30:39;6.13;;;2.15;;
44328;SDS011;30039;51.462;6.892;2024-02-21T16:33:25;10.85;;;2.95;;
44328;SDS011;30039;51.462;6.892;2024-02-21T16:36:20;6.72;;;2.50;;
44328;SDS011;30039;51.462;6.892;2024-02-21T16:39:07;9.00;;;2.42;;
44328;SDS011;30039;51.462;6.892;2024-02-21T16:41:52;6.65;;;2.63;;
44328;SDS011;30039;51.462;6.892;2024-02-21T16:44:45;7.90;;;2.95;;
44328;SDS011;30039;51.462;6.892;2024-02-21T16:47:31;11.02;;;2.80;;
44328;SDS011;30039;51.462;6.892;2024-02-21T16:50:16;8.30;;;2.95;;
44328;SDS011;30039;51.462;6.892;2024-02-21T16:53:02;7.78;;;3.10;;
44328;SDS011;30039;51.462;6.892;2024-02-21T16:55:48;7.00;;;2.50;;
44328;SDS011;30039;51.462;6.892;2024-02-21T16:58:34;10.05;;;2.70;;
44328;SDS011;30039;51.462;6.892;2024-02-21T17:01:22;6.75;;;3.03;;
44328;SDS011;30039;51.462;6.892;2024-02-21T17:04:08;6.35;;;2.67;;
44328;SDS011;30039;51.462;6.892;2024-02-21T17:06:53;8.38;;;3.15;;
44328;SDS011;30039;51.462;6.892;2024-02-21T17:09:39;6.72;;;2.47;;
44328;SDS011;30039;51.462;6.892;2024-02-21T17:12:24;6.80;;;2.53;;
44328;SDS011;30039;51.462;6.892;2024-02-21T17:15:10;7.50;;;2.55;;
44328;SDS011;30039;51.462;6.892;2024-02-21T17:17:56;4.28;;;2.25;;
44328;SDS011;30039;51.462;6.892;2024-02-21T17:20:45;3.85;;;2.17;;
44328;SDS011;30039;51.462;6.892;2024-02-21T17:23:30;6.03;;;1.88;;
44328;SDS011;30039;51.462;6.892;2024-02-21T17:26:16;6.20;;;2.38;;
44328;SDS011;30039;51.462;6.892;2024-02-21T17:29:03;5.95;;;2.45;;
44328;SDS011;30039;51.462;6.892;2024-02-21T17:31:49;6.30;;;2.63;;
44328;SDS011;30039;51.462;6.892;2024-02-21T17:34:34;5.22;;;2.22;;
44328;SDS011;30039;51.462;6.892;2024-02-21T17:37:20;4.55;;;1.98;;
44328;SDS011;30039;51.462;6.892;2024-02-21T17:40:05;4.68;;;1.88;;
44328;SDS011;30039;51.462;6.892;2024-02-21T17:42:54;3.83;;;1.85;;
44328;SDS011;30039;51.462;6.892;2024-02-21T17:45:39;4.90;;;1.98;;
44328;SDS011;30039;51.462;6.892;2024-02-21T17:48:26;4.55;;;2.45;;
44328;SDS011;30039;51.462;6.892;2024-02-21T17:51:12;3.92;;;2.20;;
44328;SDS011;30039;51.462;6.892;2024-02-21T17:53:58;7.80;;;2.50;;
44328;SDS011;30039;51.462;6.892;2024-02-21T17:56:43;4.32;;;2.10;;
44328;SDS011;30039;51.462;6.892;2024-02-21T17:59:31;3.55;;;1.95;;
44328;SDS011;30039;51.462;6.892;2024-02-21T18:02:17;4.10;;;2.17;;
44328;SDS011;30039;51.462;6.892;2024-02-21T18:05:05;5.25;;;2.15;;
44328;SDS011;30039;51.462;6.892;2024-02-21T18:07:50;6.43;;;2.47;;
44328;SDS011;30039;51.462;6.892;2024-02-21T18:10:36;6.97;;;2.58;;
44328;SDS011;30039;51.462;6.892;2024-02-21T18:13:23;4.72;;;2.55;;
44328;SDS011;30039;51.462;6.892;2024-02-21T18:16:08;7.53;;;2.90;;
44328;SDS011;30039;51.462;6.892;2024-02-21T18:18:54;5.57;;;2.55;;
44328;SDS011;30039;51.462;6.892;2024-02-21T18:21:42;6.45;;;2.55;;
44328;SDS011;30039;51.462;6.892;2024-02-21T18:24:28;8.30;;;2.95;;
44328;SDS011;30039;51.462;6.892;2024-02-21T18:27:15;4.93;;;2.58;;
44328;SDS011;30039;51.462;6.892;2024-02-21T18:30:01;8.05;;;2.72;;
44328;SDS011;30039;51.462;6.892;2024-02-21T18:32:47;9.95;;;2.72;;
44328;SDS011;30039;51.462;6.892;2024-02-21T18:35:35;7.78;;;2.92;;
44328;SDS011;30039;51.462;6.892;2024-02-21T18:38:20;7.75;;;2.85;;
44328;SDS011;30039;51.462;6.892;2024-02-21T18:41:06;7.13;;;2.42;;
44328;SDS011;30039;51.462;6.892;2024-02-21T18:43:53;10.75;;;2.80;;
44328;SDS011;30039;51.462;6.892;2024-02-21T18:46:39;8.45;;;2.83;;
44328;SDS011;30039;51.462;6.892;2024-02-21T18:49:25;7.53;;;3.05;;
44328;SDS011;30039;51.462;6.892;2024-02-21T18:52:11;7.82;;;2.25;;
44328;SDS011;30039;51.462;6.892;2024-02-21T18:54:56;6.68;;;2.85;;
44328;SDS011;30039;51.462;6.892;2024-02-21T18:57:43;5.88;;;2.42;;
44328;SDS011;30039;51.462;6.892;2024-02-21T19:00:29;5.85;;;2.20;;
44328;SDS011;30039;51.462;6.892;2024-02-21T19:03:14;8.65;;;3.10;;
44328;SDS011;30039;51.462;6.892;2024-02-21T19:06:00;7.57;;;2.92;;
44328;SDS011;30039;51.462;6.892;2024-02-21T19:08:46;8.35;;;2.83;;
44328;SDS011;30039;51.462;6.892;2024-02-21T19:11:35;8.43;;;2.80;;
44328;SDS011;30039;51.462;6.892;2024-02-21T19:14:21;6.75;;;2.80;;
44328;SDS011;30039;51.462;6.892;2024-02-21T19:17:07;9.95;;;3.33;;
44328;SDS011;30039;51.462;6.892;2024-02-21T19:19:53;6.75;;;2.80;;
44328;SDS011;30039;51.462;6.892;2024-02-21T19:22:38;6.75;;;2.92;;
44328;SDS011;30039;51.462;6.892;2024-02-21T19:25:24;11.07;;;2.97;;
44328;SDS011;30039;51.462;6.892;2024-02-21T19:28:11;5.80;;;3.10;;
44328;SDS011;30039;51.462;6.892;2024-02-21T19:30:56;6.22;;;2.78;;
44328;SDS011;30039;51.462;6.892;2024-02-21T19:33:42;5.95;;;2.97;;
44328;SDS011;30039;51.462;6.892;2024-02-21T19:36:27;7.90;;;3.03;;
44328;SDS011;30039;51.462;6.892;2024-02-21T19:39:13;7.63;;;2.75;;
44328;SDS011;30039;51.462;6.892;2024-02-21T19:41:58;5.13;;;2.55;;
44328;SDS011;30039;51.462;6.892;2024-02-21T19:44:44;10.45;;;2.88;;
44328;SDS011;30039;51.462;6.892;2024-02-21T19:47:29;6.20;;;3.05;;
44328;SDS011;30039;51.462;6.892;2024-02-21T19:50:15;7.07;;;2.67;;
44328;SDS011;30039;51.462;6.892;2024-02-21T19:53:06;6.40;;;2.95;;
44328;SDS011;30039;51.462;6.892;2024-02-21T19:55:51;6.75;;;2.80;;
44328;SDS011;30039;51.462;6.892;2024-02-21T19:58:37;5.45;;;2.58;;
44328;SDS011;30039;51.462;6.892;2024-02-21T20:01:23;7.00;;;3.33;;
44328;SDS011;30039;51.462;6.892;2024-02-21T20:04:08;5.43;;;3.13;;
44328;SDS011;30039;51.462;6.892;2024-02-21T20:06:54;8.02;;;3.17;;
44328;SDS011;30039;51.462;6.892;2024-02-21T20:09:40;7.40;;;3.05;;
44328;SDS011;30039;51.462;6.892;2024-02-21T20:12:26;8.20;;;2.80;;
44328;SDS011;30039;51.462;6.892;2024-02-21T20:15:11;10.48;;;3.20;;
44328;SDS011;30039;51.462;6.892;2024-02-21T20:17:59;7.10;;;2.92;;
44328;SDS011;30039;51.462;6.892;2024-02-21T20:20:44;6.90;;;3.10;;
44328;SDS011;30039;51.462;6.892;2024-02-21T20:23:30;7.05;;;3.30;;
44328;SDS011;30039;51.462;6.892;2024-02-21T20:26:16;7.00;;;3.22;;
44328;SDS011;30039;51.462;6.892;2024-02-21T20:29:02;4.45;;;2.80;;
44328;SDS011;30039;51.462;6.892;2024-02-21T20:31:47;8.90;;;2.95;;
44328;SDS011;30039;51.462;6.892;2024-02-21T20:34:33;9.15;;;3.63;;
44328;SDS011;30039;51.462;6.892;2024-02-21T20:37:19;5.15;;;3.20;;
44328;SDS011;30039;51.462;6.892;2024-02-21T20:40:05;10.73;;;3.45;;
44328;SDS011;30039;51.462;6.892;2024-02-21T20:42:52;6.13;;;3.40;;
44328;SDS011;30039;51.462;6.892;2024-02-21T20:45:37;8.63;;;3.78;;
44328;SDS011;30039;51.462;6.892;2024-02-21T20:48:23;6.05;;;3.25;;
44328;SDS011;30039;51.462;6.892;2024-02-21T20:51:09;9.50;;;3.65;;
44328;SDS011;30039;51.462;6.892;2024-02-21T20:53:54;7.32;;;3.40;;
44328;SDS011;30039;51.462;6.892;2024-02-21T20:56:40;10.32;;;4.07;;
44328;SDS011;30039;51.462;6.892;2024-02-21T20:59:26;6.80;;;3.15;;
44328;SDS011;30039;51.462;6.892;2024-02-21T21:02:11;7.85;;;3.50;;
44328;SDS011;30039;51.462;6.892;2024-02-21T21:04:57;8.13;;;3.38;;
44328;SDS011;30039;51.462;6.892;2024-02-21T21:07:45;7.13;;;3.42;;
44328;SDS011;30039;51.462;6.892;2024-02-21T21:10:31;9.35;;;3.47;;
44328;SDS011;30039;51.462;6.892;2024-02-21T21:13:19;7.40;;;3.60;;
44328;SDS011;30039;51.462;6.892;2024-02-21T21:16:05;7.72;;;3.13;;
44328;SDS011;30039;51.462;6.892;2024-02-21T21:18:53;9.77;;;3.85;;
44328;SDS011;30039;51.462;6.892;2024-02-21T21:21:39;7.03;;;3.53;;
44328;SDS011;30039;51.462;6.892;2024-02-21T21:24:26;7.95;;;4.00;;
44328;SDS011;30039;51.462;6.892;2024-02-21T21:27:11;7.38;;;3.22;;
44328;SDS011;30039;51.462;6.892;2024-02-21T21:30:03;4.65;;;3.13;;
44328;SDS011;30039;51.462;6.892;2024-02-21T21:32:49;6.90;;;3.45;;
44328;SDS011;30039;51.462;6.892;2024-02-21T21:35:34;6.60;;;3.42;;
44328;SDS011;30039;51.462;6.892;2024-02-21T21:38:20;9.32;;;3.35;;
44328;SDS011;30039;51.462;6.892;2024-02-21T21:41:06;7.25;;;3.55;;
44328;SDS011;30039;51.462;6.892;2024-02-21T21:43:52;7.75;;;3.55;;
44328;SDS011;30039;51.462;6.892;2024-02-21T21:46:37;7.30;;;3.47;;
44328;SDS011;30039;51.462;6.892;2024-02-21T21:49:24;10.00;;;3.50;;
44328;SDS011;30039;51.462;6.892;2024-02-21T21:52:10;5.75;;;2.70;;
44328;SDS011;30039;51.462;6.892;2024-02-21T21:54:57;5.25;;;3.10;;
44328;SDS011;30039;51.462;6.892;2024-02-21T21:57:44;6.55;;;3.45;;
44328;SDS011;30039;51.462;6.892;2024-02-21T22:00:30;5.75;;;3.25;;
44328;SDS011;30039;51.462;6.892;2024-02-21T22:03:15;5.13;;;2.53;;
44328;SDS011;30039;51.462;6.892;2024-02-21T22:06:01;4.55;;;2.75;;
44328;SDS011;30039;51.462;6.892;2024-02-21T22:08:47;5.93;;;3.47;;
44328;SDS011;30039;51.462;6.892;2024-02-21T22:11:33;7.72;;;3.25;;
44328;SDS011;30039;51.462;6.892;2024-02-21T22:14:18;6.18;;;3.35;;
44328;SDS011;30039;51.462;6.892;2024-02-21T22:17:04;3.83;;;2.25;;
44328;SDS011;30039;51.462;6.892;2024-02-21T22:19:50;4.93;;;3.40;;
44328;SDS011;30039;51.462;6.892;2024-02-21T22:22:35;4.95;;;3.00;;
44328;SDS011;30039;51.462;6.892;2024-02-21T22:25:21;5.20;;;2.80;;
44328;SDS011;30039;51.462;6.892;2024-02-21T22:28:07;4.57;;;2.72;;
44328;SDS011;30039;51.462;6.892;2024-02-21T22:30:53;3.80;;;2.10;;
44328;SDS011;30039;51.462;6.892;2024-02-21T22:33:38;6.22;;;2.63;;
44328;SDS011;30039;51.462;6.892;2024-02-21T22:36:24;6.45;;;2.85;;
44328;SDS011;30039;51.462;6.892;2024-02-21T22:39:10;4.38;;;2.70;;
44328;SDS011;30039;51.462;6.892;2024-02-21T22:41:55;4.43;;;2.40;;
44328;SDS011;30039;51.462;6.892;2024-02-21T22:44:41;4.80;;;2.50;;
44328;SDS011;30039;51.462;6.892;2024-02-21T22:47:29;4.70;;;2.40;;
44328;SDS011;30039;51.462;6.892;2024-02-21T22:50:15;2.20;;;1.73;;
44328;SDS011;30039;51.462;6.892;2024-02-21T22:53:01;5.80;;;2.30;;
44328;SDS011;30039;51.462;6.892;2024-02-21T22:55:47;4.82;;;2.15;;
44328;SDS011;30039;51.462;6.892;2024-02-21T22:58:32;3.67;;;2.00;;
44328;SDS011;30039;51.462;6.892;2024-02-21T23:01:18;4.53;;;2.42;;
44328;SDS011;30039;51.462;6.892;2024-02-21T23:04:03;3.00;;;2.00;;
44328;SDS011;30039;51.462;6.892;2024-02-21T23:06:55;4.07;;;2.20;;
44328;SDS011;30039;51.462;6.892;2024-02-21T23:09:41;3.38;;;2.17;;
44328;SDS011;30039;51.462;6.892;2024-02-21T23:12:27;5.50;;;2.40;;
44328;SDS011;30039;51.462;6.892;2024-02-21T23:15:12;3.58;;;2.40;;
44328;SDS011;30039;51.462;6.892;2024-02-21T23:17:58;3.25;;;2.05;;
44328;SDS011;30039;51.462;6.892;2024-02-21T23:20:43;3.75;;;1.95;;
44328;SDS011;30039;51.462;6.892;2024-02-21T23:23:29;3.25;;;2.10;;
44328;SDS011;30039;51.462;6.892;2024-02-21T23:26:15;3.10;;;2.08;;
44328;SDS011;30039;51.462;6.892;2024-02-21T23:29:00;3.22;;;1.95;;
44328;SDS011;30039;51.462;6.892;2024-02-21T23:31:46;2.95;;;2.13;;
44328;SDS011;30039;51.462;6.892;2024-02-21T23:34:32;3.40;;;2.17;;
44328;SDS011;30039;51.462;6.892;2024-02-21T23:37:19;4.07;;;1.83;;
44328;SDS011;30039;51.462;6.892;2024-02-21T23:40:05;4.72;;;2.25;;
44328;SDS011;30039;51.462;6.892;2024-02-21T23:42:51;3.10;;;1.90;;
44328;SDS011;30039;51.462;6.892;2024-02-21T23:45:37;4.90;;;2.20;;
44328;SDS011;30039;51.462;6.892;2024-02-21T23:48:23;3.05;;;2.00;;
44328;SDS011;30039;51.462;6.892;2024-02-21T23:51:08;3.10;;;1.98;;
44328;SDS011;30039;51.462;6.892;2024-02-21T23:53:54;3.15;;;1.90;;
44328;SDS011;30039;51.462;6.892;2024-02-21T23:56:43;3.47;;;1.60;;
44328;SDS011;30039;51.462;6.892;2024-02-21T23:59:29;4.28;;;1.73;;
